| time (UTC) | temp C | wind direction | speed KPH | gust KPH | rain 1hr cm | rain 24hr cm | rain mn cm | humidity % | barometer mb |
| 20260510221850 | 16 | 353 | 0.0 | 1.6 | 0.00 | 0.08 | 0.08 | 90 | 1014.9 |
| 20260510221348 | 16 | 348 | 0.0 | 3.2 | 0.00 | 0.08 | 0.08 | 90 | 1014.8 |
| 20260510220844 | 16 | 329 | 1.6 | 1.6 | 0.00 | 0.08 | 0.08 | 91 | 1015.0 |
| 20260510220340 | 16 | 1 | 0.0 | 1.6 | 0.00 | 0.08 | 0.08 | 91 | 1014.9 |
| 20260510215836 | 16 | 12 | 0.0 | 1.6 | 0.00 | 0.08 | 0.08 | 91 | 1014.7 |
| 20260510215334 | 16 | 19 | 0.0 | 4.8 | 0.00 | 0.08 | 0.08 | 90 | 1014.9 |
| 20260510214832 | 16 | 351 | 0.0 | 1.6 | 0.00 | 0.08 | 0.08 | 89 | 1014.8 |
| 20260510214328 | 16 | 3 | 0.0 | 1.6 | 0.00 | 0.08 | 0.08 | 89 | 1014.8 |
| 20260510213825 | 16 | 2 | 0.0 | 1.6 | 0.00 | 0.08 | 0.08 | 89 | 1014.6 |
| 20260510213322 | 16 | 3 | 0.0 | 0.0 | 0.00 | 0.08 | 0.08 | 88 | 1014.7 |
| 20260510212818 | 16 | 3 | 0.0 | 1.6 | 0.00 | 0.08 | 0.08 | 88 | 1014.8 |
| 20260510212316 | 16 | 354 | 0.0 | 1.6 | 0.00 | 0.08 | 0.08 | 88 | 1014.7 |
| 20260510211812 | 16 | 4 | 0.0 | 3.2 | 0.00 | 0.08 | 0.08 | 89 | 1014.6 |
| 20260510211308 | 15 | 337 | 0.0 | 1.6 | 0.00 | 0.08 | 0.08 | 91 | 1014.5 |
| 20260510210804 | 15 | 351 | 0.0 | 3.2 | 0.00 | 0.08 | 0.08 | 92 | 1014.5 |
| 20260510210258 | 15 | 332 | 1.6 | 3.2 | 0.00 | 0.08 | 0.08 | 93 | 1014.6 |
| 20260510205752 | 16 | 285 | 1.6 | 1.6 | 0.00 | 0.08 | 0.08 | 93 | 1014.5 |
| 20260510205248 | 15 | 356 | 0.0 | 1.6 | 0.00 | 0.08 | 0.08 | 92 | 1014.3 |
| 20260510204744 | 15 | 0 | 0.0 | 1.6 | 0.00 | 0.08 | 0.08 | 93 | 1014.5 |
| 20260510204241 | 16 | 6 | 0.0 | 0.0 | 0.00 | 0.08 | 0.08 | 93 | 1014.4 |
| 20260510203738 | 15 | 5 | 0.0 | 1.6 | 0.00 | 0.08 | 0.08 | 93 | 1014.5 |
| 20260510203236 | 16 | 358 | 1.6 | 1.6 | 0.00 | 0.08 | 0.08 | 92 | 1014.5 |
| 20260510202735 | 15 | 1 | 0.0 | 0.0 | 0.00 | 0.08 | 0.08 | 91 | 1014.5 |
| 20260510202231 | 15 | 358 | 0.0 | 1.6 | 0.13 | 0.08 | 0.08 | 89 | 1014.4 |
| 20260510201728 | 16 | 2 | 1.6 | 3.2 | 0.48 | 0.08 | 0.08 | 87 | 1014.5 |
| 20260510201225 | 16 | 3 | 1.6 | 4.8 | 0.36 | 0.05 | 0.05 | 84 | 1014.5 |
| 20260510200721 | 17 | 274 | 6.4 | 11.3 | 0.00 | 0.00 | 0.00 | 81 | 1014.6 |
| 20260510200219 | 17 | 358 | 1.6 | 3.2 | 0.00 | 0.00 | 0.00 | 80 | 1014.3 |
| 20260510195716 | 17 | 12 | 1.6 | 4.8 | 0.00 | 0.00 | 0.00 | 78 | 1014.4 |
| 20260510195213 | 17 | 6 | 1.6 | 3.2 | 0.00 | 0.00 | 0.00 | 81 | 1014.2 |
| 20260510194712 | 17 | 285 | 3.2 | 4.8 | 0.00 | 0.00 | 0.00 | 77 | 1014.2 |
| 20260510194209 | 18 | 138 | 4.8 | 9.7 | 0.00 | 0.00 | 0.00 | 75 | 1014.2 |
| 20260510193704 | 18 | 137 | 4.8 | 8.0 | 0.00 | 0.00 | 0.00 | 73 | 1014.3 |
| 20260510193159 | 19 | 272 | 3.2 | 8.0 | 0.00 | 0.00 | 0.00 | 74 | 1014.1 |
| 20260510192655 | 20 | 7 | 1.6 | 9.7 | 0.00 | 0.00 | 0.00 | 73 | 1014.2 |
| 20260510192150 | 20 | 258 | 3.2 | 9.7 | 0.00 | 0.00 | 0.00 | 71 | 1014.1 |
| 20260510191647 | 20 | 303 | 1.6 | 9.7 | 0.00 | 0.00 | 0.00 | 70 | 1014.0 |
| 20260510191144 | 20 | 186 | 3.2 | 11.3 | 0.00 | 0.00 | 0.00 | 67 | 1013.9 |
| 20260510190641 | 20 | 132 | 3.2 | 8.0 | 0.00 | 0.00 | 0.00 | 67 | 1013.7 |
| 20260510190138 | 20 | 242 | 4.8 | 9.7 | 0.00 | 0.00 | 0.00 | 66 | 1013.8 |
| 20260510185634 | 20 | 247 | 1.6 | 8.0 | 0.00 | 0.00 | 0.00 | 67 | 1013.9 |
| 20260510185133 | 20 | 359 | 4.8 | 4.8 | 0.00 | 0.00 | 0.00 | 70 | 1014.1 |
| 20260510184629 | 20 | 170 | 8.0 | 9.7 | 0.00 | 0.00 | 0.00 | 70 | 1014.0 |
| 20260510184125 | 20 | 201 | 6.4 | 9.7 | 0.00 | 0.00 | 0.00 | 69 | 1014.0 |
| 20260510183620 | 20 | 273 | 1.6 | 11.3 | 0.00 | 0.00 | 0.00 | 69 | 1013.9 |
| 20260510183116 | 20 | 303 | 4.8 | 11.3 | 0.00 | 0.00 | 0.00 | 71 | 1014.2 |
| 20260510182613 | 20 | 12 | 4.8 | 4.8 | 0.00 | 0.00 | 0.00 | 72 | 1014.1 |
| 20260510182108 | 20 | 275 | 3.2 | 4.8 | 0.00 | 0.00 | 0.00 | 70 | 1014.0 |
| 20260510181606 | 20 | 265 | 4.8 | 9.7 | 0.00 | 0.00 | 0.00 | 71 | 1014.2 |
| 20260510181102 | 20 | 203 | 8.0 | 14.5 | 0.00 | 0.00 | 0.00 | 69 | 1014.0 |
| 20260510180558 | 20 | 247 | 9.7 | 14.5 | 0.00 | 0.00 | 0.00 | 70 | 1014.1 |
| 20260510180056 | 20 | 348 | 0.0 | 20.9 | 0.00 | 0.00 | 0.00 | 71 | 1014.1 |
| 20260510175551 | 20 | 197 | 8.0 | 11.3 | 0.00 | 0.00 | 0.00 | 71 | 1014.0 |
| 20260510175047 | 20 | 178 | 9.7 | 12.9 | 0.00 | 0.00 | 0.00 | 72 | 1014.0 |
| 20260510174545 | 20 | 184 | 4.8 | 12.9 | 0.00 | 0.00 | 0.00 | 71 | 1014.1 |
| 20260510174042 | 20 | 279 | 8.0 | 12.9 | 0.00 | 0.00 | 0.00 | 70 | 1014.1 |
| 20260510173537 | 20 | 300 | 4.8 | 11.3 | 0.00 | 0.00 | 0.00 | 72 | 1013.9 |
| 20260510173034 | 20 | 183 | 1.6 | 4.8 | 0.00 | 0.00 | 0.00 | 71 | 1013.8 |
| 20260510172530 | 20 | 234 | 9.7 | 12.9 | 0.00 | 0.00 | 0.00 | 70 | 1013.6 |
| 20260510172027 | 20 | 176 | 3.2 | 8.0 | 0.00 | 0.00 | 0.00 | 69 | 1013.6 |
| 20260510171523 | 20 | 252 | 8.0 | 9.7 | 0.00 | 0.00 | 0.00 | 70 | 1014.0 |
| 20260510171021 | 20 | 239 | 4.8 | 9.7 | 0.00 | 0.00 | 0.00 | 69 | 1013.9 |
| 20260510170517 | 20 | 260 | 4.8 | 8.0 | 0.00 | 0.00 | 0.00 | 71 | 1014.2 |
| 20260510170014 | 20 | 202 | 11.3 | 14.5 | 0.00 | 0.00 | 0.00 | 68 | 1013.8 |
| 20260510165509 | 19 | 215 | 14.5 | 17.7 | 0.00 | 0.00 | 0.00 | 71 | 1014.2 |
| 20260510165006 | 19 | 14 | 1.6 | 8.0 | 0.00 | 0.00 | 0.00 | 73 | 1014.2 |
| 20260510164503 | 20 | 173 | 11.3 | 14.5 | 0.00 | 0.00 | 0.00 | 72 | 1014.0 |
| 20260510163958 | 19 | 192 | 3.2 | 8.0 | 0.00 | 0.00 | 0.00 | 73 | 1014.2 |
| 20260510163449 | 18 | 124 | 3.2 | 9.7 | 0.00 | 0.00 | 0.00 | 74 | 1014.3 |
| 20260510162944 | 19 | 224 | 6.4 | 8.0 | 0.00 | 0.00 | 0.00 | 75 | 1014.3 |
| 20260510162441 | 18 | 321 | 3.2 | 4.8 | 0.00 | 0.00 | 0.00 | 76 | 1014.4 |
| 20260510161937 | 18 | 282 | 9.7 | 12.9 | 0.00 | 0.00 | 0.00 | 76 | 1014.4 |
| 20260510161432 | 18 | 262 | 4.8 | 9.7 | 0.00 | 0.00 | 0.00 | 77 | 1014.4 |
| 20260510160930 | 18 | 289 | 1.6 | 8.0 | 0.00 | 0.00 | 0.00 | 78 | 1014.4 |
| 20260510160426 | 17 | 307 | 4.8 | 12.9 | 0.00 | 0.00 | 0.00 | 79 | 1014.4 |
| 20260510155919 | 17 | 197 | 6.4 | 11.3 | 0.00 | 0.00 | 0.00 | 78 | 1014.5 |
| 20260510155417 | 17 | 86 | 3.2 | 9.7 | 0.00 | 0.00 | 0.00 | 79 | 1014.6 |
| 20260510154914 | 17 | 170 | 8.0 | 12.9 | 0.00 | 0.00 | 0.00 | 79 | 1014.4 |
| 20260510154409 | 17 | 197 | 6.4 | 8.0 | 0.00 | 0.00 | 0.00 | 78 | 1014.7 |
| 20260510153903 | 17 | 197 | 6.4 | 9.7 | 0.00 | 0.00 | 0.00 | 79 | 1014.7 |
| 20260510153400 | 17 | 210 | 8.0 | 11.3 | 0.00 | 0.00 | 0.00 | 79 | 1014.8 |
| 20260510152856 | 17 | 279 | 4.8 | 4.8 | 0.00 | 0.00 | 0.00 | 79 | 1014.9 |
| 20260510152354 | 17 | 4 | 3.2 | 11.3 | 0.00 | 0.00 | 0.00 | 80 | 1014.9 |
| 20260510151850 | 17 | 48 | 1.6 | 4.8 | 0.00 | 0.00 | 0.00 | 80 | 1014.7 |
| 20260510151348 | 17 | 236 | 3.2 | 4.8 | 0.00 | 0.00 | 0.00 | 82 | 1014.7 |
| 20260510150844 | 17 | 0 | 0.0 | 8.0 | 0.00 | 0.00 | 0.00 | 80 | 1014.8 |
| 20260510150339 | 17 | 246 | 4.8 | 8.0 | 0.00 | 0.00 | 0.00 | 79 | 1014.7 |
| 20260510145836 | 17 | 228 | 8.0 | 11.3 | 0.00 | 0.00 | 0.00 | 80 | 1014.9 |
| 20260510145332 | 16 | 278 | 4.8 | 8.0 | 0.00 | 0.00 | 0.00 | 80 | 1014.8 |
| 20260510144829 | 16 | 334 | 4.8 | 9.7 | 0.00 | 0.00 | 0.00 | 81 | 1014.6 |
| 20260510144326 | 16 | 209 | 8.0 | 12.9 | 0.00 | 0.00 | 0.00 | 80 | 1014.7 |
| 20260510143825 | 16 | 237 | 6.4 | 8.0 | 0.00 | 0.00 | 0.00 | 80 | 1014.7 |
| 20260510143322 | 16 | 252 | 4.8 | 4.8 | 0.00 | 0.00 | 0.00 | 82 | 1014.6 |
| 20260510142819 | 16 | 10 | 0.0 | 3.2 | 0.00 | 0.00 | 0.00 | 83 | 1014.6 |
| 20260510142315 | 16 | 21 | 0.0 | 3.2 | 0.00 | 0.00 | 0.00 | 84 | 1014.7 |
| 20260510141812 | 15 | 11 | 0.0 | 0.0 | 0.00 | 0.00 | 0.00 | 86 | 1014.7 |
| 20260510141309 | 15 | 16 | 0.0 | 4.8 | 0.00 | 0.00 | 0.00 | 88 | 1014.7 |
| 20260510140807 | 15 | 9 | 0.0 | 1.6 | 0.00 | 0.00 | 0.00 | 89 | 1014.9 |
| 20260510140302 | 14 | 16 | 0.0 | 1.6 | 0.00 | 0.00 | 0.00 | 90 | 1014.9 |
| 20260510135756 | 13 | 3 | 0.0 | 0.0 | 0.00 | 0.00 | 0.00 | 92 | 1014.9 |
| 20260510135252 | 13 | 344 | 1.6 | 3.2 | 0.00 | 0.00 | 0.00 | 92 | 1014.7 |
| 20260510134750 | 13 | 67 | 3.2 | 3.2 | 0.00 | 0.00 | 0.00 | 93 | 1014.8 |
| 20260510134247 | 12 | 20 | 0.0 | 8.0 | 0.00 | 0.00 | 0.00 | 93 | 1014.6 |
| 20260510133742 | 12 | 261 | 3.2 | 3.2 | 0.00 | 0.00 | 0.00 | 93 | 1014.7 |
| 20260510133238 | 12 | 20 | 0.0 | 3.2 | 0.00 | 0.00 | 0.00 | 93 | 1014.7 |
| 20260510132734 | 12 | 309 | 1.6 | 1.6 | 0.00 | 0.00 | 0.00 | 93 | 1014.4 |
| 20260510132232 | 12 | 8 | 0.0 | 1.6 | 0.00 | 0.00 | 0.00 | 95 | 1014.6 |
| 20260510131729 | 12 | 354 | 0.0 | 1.6 | 0.00 | 0.00 | 0.00 | 95 | 1014.6 |
| 20260510131227 | 12 | 349 | 0.0 | 1.6 | 0.00 | 0.00 | 0.00 | 95 | 1014.6 |
| 20260510130723 | 12 | 13 | 0.0 | 1.6 | 0.00 | 0.00 | 0.00 | 95 | 1014.8 |
| 20260510130220 | 12 | 345 | 0.0 | 1.6 | 0.00 | 0.00 | 0.00 | 94 | 1014.7 |
| 20260510125716 | 12 | 311 | 1.6 | 3.2 | 0.00 | 0.00 | 0.00 | 94 | 1014.6 |
| 20260510125212 | 12 | 17 | 0.0 | 1.6 | 0.00 | 0.00 | 0.00 | 94 | 1014.7 |
| 20260510124709 | 12 | 23 | 0.0 | 0.0 | 0.00 | 0.00 | 0.00 | 95 | 1014.7 |
| 20260510124207 | 12 | 358 | 0.0 | 1.6 | 0.00 | 0.00 | 0.00 | 94 | 1014.6 |
| 20260510123702 | 12 | 11 | 0.0 | 3.2 | 0.00 | 0.00 | 0.00 | 94 | 1014.3 |
| 20260510123158 | 12 | 18 | 0.0 | 0.0 | 0.00 | 0.00 | 0.00 | 96 | 1014.4 |
| 20260510122655 | 12 | 126 | 1.6 | 3.2 | 0.00 | 0.00 | 0.00 | 96 | 1014.2 |
| 20260510122151 | 12 | 145 | 0.0 | 3.2 | 0.00 | 0.00 | 0.00 | 97 | 1014.4 |
| 20260510121647 | 12 | 19 | 0.0 | 1.6 | 0.00 | 0.00 | 0.00 | 98 | 1014.2 |
| 20260510121145 | 11 | 12 | 0.0 | 0.0 | 0.00 | 0.00 | 0.00 | 98 | 1014.2 |
| 20260510120642 | 11 | 27 | 0.0 | 1.6 | 0.00 | 0.00 | 0.00 | 98 | 1014.2 |
| 20260510120138 | 11 | 15 | 0.0 | 0.0 | 0.00 | 0.00 | 0.00 | 99 | 1014.2 |
| 20260510115634 | 11 | 29 | 0.0 | 1.6 | 0.00 | 0.00 | 0.00 | 99 | 1014.1 |
| 20260510115133 | 11 | 24 | 0.0 | 0.0 | 0.00 | 0.00 | 0.00 | 99 | 1014.0 |
| 20260510114628 | 11 | 0 | 0.0 | 0.0 | 0.00 | 0.00 | 0.00 | 99 | 1014.0 |
| 20260510114124 | 10 | 357 | 0.0 | 1.6 | 0.00 | 0.00 | 0.00 | 99 | 1014.4 |
| 20260510113620 | 10 | 337 | 0.0 | 0.0 | 0.00 | 0.00 | 0.00 | 99 | 1014.1 |
| 20260510113117 | 10 | 64 | 1.6 | 1.6 | 0.00 | 0.00 | 0.00 | 99 | 1013.9 |
| 20260510112614 | 10 | 23 | 0.0 | 0.0 | 0.00 | 0.00 | 0.00 | 99 | 1014.0 |
| 20260510112110 | 10 | 22 | 0.0 | 0.0 | 0.00 | 0.00 | 0.00 | 99 | 1013.7 |
| 20260510111606 | 10 | 23 | 0.0 | 0.0 | 0.00 | 0.00 | 0.00 | 99 | 1013.7 |
| 20260510111102 | 10 | 9 | 0.0 | 0.0 | 0.00 | 0.00 | 0.00 | 99 | 1013.7 |
| 20260510110558 | 10 | 1 | 0.0 | 1.6 | 0.00 | 0.00 | 0.00 | 99 | 1014.0 |
| 20260510110055 | 10 | 359 | 0.0 | 0.0 | 0.00 | 0.00 | 0.00 | 99 | 1013.8 |
| 20260510105551 | 10 | 17 | 0.0 | 0.0 | 0.00 | 0.00 | 0.00 | 99 | 1013.6 |
| 20260510105045 | 10 | 17 | 0.0 | 1.6 | 0.00 | 0.00 | 0.00 | 99 | 1013.6 |
| 20260510104542 | 10 | 0 | 0.0 | 0.0 | 0.00 | 0.00 | 0.00 | 99 | 1013.8 |
| 20260510104039 | 10 | 355 | 0.0 | 1.6 | 0.00 | 0.00 | 0.00 | 99 | 1013.9 |
| 20260510103536 | 10 | 62 | 1.6 | 1.6 | 0.00 | 0.00 | 0.00 | 99 | 1013.9 |
| 20260510103032 | 10 | 0 | 0.0 | 0.0 | 0.00 | 0.00 | 0.00 | 99 | 1013.8 |
| 20260510102528 | 10 | 0 | 0.0 | 0.0 | 0.00 | 0.00 | 0.00 | 99 | 1013.6 |
| 20260510102024 | 10 | 2 | 0.0 | 0.0 | 0.00 | 0.00 | 0.00 | 99 | 1013.6 |
| 20260510101522 | 10 | 17 | 0.0 | 0.0 | 0.00 | 0.00 | 0.00 | 99 | 1013.4 |
| 20260510101021 | 10 | 10 | 0.0 | 0.0 | 0.00 | 0.00 | 0.00 | 99 | 1013.4 |
| 20260510100516 | 10 | 7 | 0.0 | 0.0 | 0.00 | 0.00 | 0.00 | 99 | 1013.4 |
| 20260510100014 | 10 | 33 | 1.6 | 3.2 | 0.00 | 0.00 | 0.00 | 99 | 1013.4 |
| 20260510095509 | 10 | 28 | 0.0 | 1.6 | 0.00 | 0.00 | 0.00 | 99 | 1013.2 |
| 20260510095008 | 10 | 15 | 0.0 | 1.6 | 0.00 | 0.00 | 0.00 | 99 | 1013.5 |
| 20260510094503 | 10 | 32 | 0.0 | 1.6 | 0.00 | 0.00 | 0.00 | 99 | 1013.7 |
| 20260510093959 | 10 | 16 | 0.0 | 0.0 | 0.00 | 0.00 | 0.00 | 99 | 1013.8 |
| 20260510093455 | 10 | 12 | 0.0 | 1.6 | 0.00 | 0.00 | 0.00 | 99 | 1013.7 |
| 20260510092952 | 10 | 0 | 0.0 | 0.0 | 0.00 | 0.00 | 0.00 | 99 | 1013.6 |
| 20260510092449 | 10 | 0 | 0.0 | 1.6 | 0.00 | 0.00 | 0.00 | 99 | 1013.6 |
| 20260510091948 | 10 | 4 | 0.0 | 0.0 | 0.00 | 0.00 | 0.00 | 99 | 1013.7 |
| 20260510091446 | 10 | 4 | 0.0 | 0.0 | 0.00 | 0.00 | 0.00 | 99 | 1013.7 |
| 20260510090942 | 10 | 4 | 0.0 | 0.0 | 0.00 | 0.00 | 0.00 | 99 | 1013.6 |
| 20260510090439 | 10 | 8 | 0.0 | 0.0 | 0.00 | 0.00 | 0.00 | 99 | 1013.5 |
| 20260510085934 | 10 | 12 | 0.0 | 0.0 | 0.00 | 0.00 | 0.00 | 99 | 1013.6 |
| 20260510085430 | 10 | 18 | 0.0 | 0.0 | 0.00 | 0.00 | 0.00 | 99 | 1013.4 |
| 20260510084925 | 10 | 356 | 0.0 | 1.6 | 0.00 | 0.00 | 0.00 | 99 | 1013.8 |
| 20260510084423 | 10 | 4 | 0.0 | 0.0 | 0.00 | 0.00 | 0.00 | 99 | 1014.0 |
| 20260510083920 | 10 | 4 | 0.0 | 0.0 | 0.00 | 0.00 | 0.00 | 99 | 1013.9 |
| 20260510083416 | 10 | 4 | 0.0 | 1.6 | 0.00 | 0.00 | 0.00 | 99 | 1013.6 |
| 20260510082911 | 10 | 8 | 0.0 | 1.6 | 0.00 | 0.00 | 0.00 | 99 | 1013.7 |
| 20260510082409 | 10 | 18 | 0.0 | 0.0 | 0.00 | 0.00 | 0.00 | 99 | 1013.6 |
| 20260510081908 | 10 | 20 | 0.0 | 0.0 | 0.00 | 0.00 | 0.00 | 99 | 1013.7 |
| 20260510081404 | 10 | 69 | 1.6 | 1.6 | 0.00 | 0.00 | 0.00 | 99 | 1013.5 |
| 20260510080900 | 10 | 11 | 0.0 | 0.0 | 0.00 | 0.00 | 0.00 | 99 | 1013.8 |
| 20260510080354 | 10 | 2 | 0.0 | 0.0 | 0.00 | 0.00 | 0.00 | 99 | 1013.7 |
| 20260510075852 | 10 | 8 | 0.0 | 1.6 | 0.00 | 0.00 | 0.00 | 99 | 1013.6 |
| 20260510075350 | 10 | 344 | 3.2 | 4.8 | 0.00 | 0.00 | 0.00 | 99 | 1013.6 |
| 20260510074845 | 10 | 4 | 0.0 | 4.8 | 0.00 | 0.00 | 0.00 | 99 | 1013.4 |
| 20260510074343 | 10 | 4 | 1.6 | 8.0 | 0.00 | 0.00 | 0.00 | 99 | 1013.6 |
| 20260510073839 | 10 | 2 | 1.6 | 4.8 | 0.00 | 0.00 | 0.00 | 99 | 1013.3 |
| 20260510073335 | 10 | 0 | 1.6 | 4.8 | 0.00 | 0.00 | 0.00 | 99 | 1013.3 |
| 20260510072831 | 10 | 17 | 1.6 | 1.6 | 0.00 | 0.00 | 0.00 | 99 | 1013.3 |
| 20260510072328 | 10 | 4 | 0.0 | 1.6 | 0.00 | 0.00 | 0.00 | 99 | 1013.3 |
| 20260510071819 | 10 | 356 | 0.0 | 0.0 | 0.00 | 0.00 | 0.00 | 99 | 1013.4 |
| 20260510071315 | 10 | 9 | 0.0 | 3.2 | 0.00 | 0.00 | 0.00 | 99 | 1013.3 |
| 20260510070814 | 10 | 339 | 0.0 | 0.0 | 0.00 | 0.00 | 0.00 | 99 | 1013.2 |
| 20260510070305 | 10 | 340 | 1.6 | 3.2 | 0.00 | 0.00 | 0.00 | 99 | 1013.2 |
| 20260510065805 | 10 | 356 | 0.0 | 1.6 | 0.00 | 0.00 | 0.00 | 99 | 1013.4 |
| 20260510065306 | 10 | 356 | 0.0 | 1.6 | 0.00 | 0.00 | 0.00 | 99 | 1013.3 |
| 20260510064759 | 10 | 17 | 0.0 | 1.6 | 0.00 | 0.00 | 0.00 | 99 | 1013.2 |
| 20260510064257 | 10 | 4 | 0.0 | 1.6 | 0.00 | 0.00 | 0.00 | 99 | 1013.5 |
| 20260510063752 | 10 | 1 | 0.0 | 1.6 | 0.00 | 0.00 | 0.00 | 99 | 1013.4 |
| 20260510063248 | 10 | 322 | 0.0 | 3.2 | 0.00 | 0.00 | 0.00 | 99 | 1013.3 |
| 20260510062745 | 10 | 1 | 0.0 | 1.6 | 0.00 | 0.00 | 0.00 | 99 | 1013.3 |
| 20260510062241 | 10 | 2 | 0.0 | 1.6 | 0.00 | 0.00 | 0.00 | 99 | 1013.4 |
| 20260510061736 | 10 | 11 | 0.0 | 1.6 | 0.00 | 0.00 | 0.00 | 99 | 1013.2 |
| 20260510061234 | 10 | 3 | 0.0 | 1.6 | 0.00 | 0.00 | 0.00 | 99 | 1013.0 |
| 20260510060730 | 10 | 348 | 1.6 | 1.6 | 0.00 | 0.00 | 0.00 | 99 | 1013.0 |
| 20260510060227 | 10 | 4 | 0.0 | 1.6 | 0.00 | 0.00 | 0.00 | 99 | 1013.0 |
| 20260510055723 | 10 | 12 | 0.0 | 1.6 | 0.00 | 0.00 | 0.00 | 99 | 1013.0 |
| 20260510055221 | 10 | 8 | 0.0 | 0.0 | 0.00 | 0.00 | 0.00 | 99 | 1012.9 |
| 20260510054716 | 10 | 8 | 0.0 | 1.6 | 0.00 | 0.00 | 0.00 | 99 | 1013.1 |
| 20260510054212 | 10 | 10 | 0.0 | 0.0 | 0.00 | 0.00 | 0.00 | 99 | 1013.1 |
| 20260510053712 | 10 | 4 | 0.0 | 0.0 | 0.00 | 0.00 | 0.00 | 99 | 1013.0 |
| 20260510053209 | 10 | 12 | 0.0 | 0.0 | 0.00 | 0.00 | 0.00 | 99 | 1013.2 |
| 20260510052704 | 10 | 12 | 0.0 | 0.0 | 0.00 | 0.00 | 0.00 | 99 | 1013.3 |
| 20260510052200 | 10 | 12 | 0.0 | 1.6 | 0.00 | 0.00 | 0.00 | 99 | 1013.4 |
| 20260510051656 | 10 | 11 | 0.0 | 0.0 | 0.00 | 0.00 | 0.00 | 99 | 1013.1 |
| 20260510051153 | 10 | 11 | 0.0 | 0.0 | 0.00 | 0.00 | 0.00 | 99 | 1013.1 |
| 20260510050650 | 10 | 11 | 0.0 | 0.0 | 0.00 | 0.00 | 0.00 | 99 | 1013.1 |
| 20260510050148 | 10 | 12 | 0.0 | 1.6 | 0.00 | 0.00 | 0.00 | 99 | 1013.2 |
| 20260510045644 | 10 | 4 | 0.0 | 1.6 | 0.00 | 0.00 | 0.00 | 99 | 1013.2 |
| 20260510045141 | 10 | 4 | 0.0 | 0.0 | 0.00 | 0.00 | 0.00 | 99 | 1013.2 |
| 20260510044637 | 10 | 19 | 0.0 | 0.0 | 0.00 | 0.00 | 0.00 | 99 | 1013.2 |
| 20260510044134 | 10 | 19 | 0.0 | 0.0 | 0.00 | 0.00 | 0.00 | 99 | 1013.2 |
| 20260510043630 | 10 | 20 | 0.0 | 0.0 | 0.00 | 0.00 | 0.00 | 99 | 1013.1 |
| 20260510043127 | 10 | 4 | 0.0 | 0.0 | 0.00 | 0.00 | 0.00 | 99 | 1013.3 |
| 20260510042625 | 10 | 2 | 0.0 | 1.6 | 0.00 | 0.00 | 0.00 | 99 | 1013.3 |
| 20260510042120 | 10 | 8 | 0.0 | 0.0 | 0.00 | 0.00 | 0.00 | 99 | 1013.2 |
| 20260510041618 | 11 | 8 | 0.0 | 0.0 | 0.00 | 0.00 | 0.00 | 99 | 1013.1 |
| 20260510041115 | 10 | 8 | 0.0 | 0.0 | 0.00 | 0.00 | 0.00 | 99 | 1013.0 |
| 20260510040612 | 10 | 9 | 0.0 | 0.0 | 0.00 | 0.00 | 0.00 | 99 | 1012.7 |
| 20260510040108 | 10 | 348 | 1.6 | 1.6 | 0.00 | 0.00 | 0.00 | 99 | 1013.1 |
| 20260510035604 | 11 | 8 | 0.0 | 1.6 | 0.00 | 1.35 | 1.35 | 99 | 1013.0 |
| 20260510035104 | 11 | 357 | 0.0 | 0.0 | 0.00 | 1.35 | 1.35 | 99 | 1012.9 |
| 20260510034601 | 11 | 357 | 0.0 | 0.0 | 0.00 | 1.35 | 1.35 | 99 | 1013.1 |
| 20260510034059 | 11 | 354 | 0.0 | 1.6 | 0.00 | 1.35 | 1.35 | 99 | 1013.0 |
| 20260510033555 | 11 | 4 | 0.0 | 0.0 | 0.00 | 1.35 | 1.35 | 99 | 1013.3 |
| 20260510033052 | 11 | 6 | 0.0 | 0.0 | 0.00 | 1.35 | 1.35 | 99 | 1013.0 |
| 20260510032549 | 11 | 8 | 0.0 | 0.0 | 0.00 | 1.35 | 1.35 | 99 | 1013.3 |
| 20260510032044 | 11 | 356 | 0.0 | 3.2 | 0.00 | 1.35 | 1.35 | 99 | 1013.0 |
| 20260510031539 | 11 | 355 | 0.0 | 1.6 | 0.00 | 1.35 | 1.35 | 99 | 1013.3 |
| 20260510031036 | 11 | 357 | 0.0 | 0.0 | 0.00 | 1.35 | 1.35 | 99 | 1013.3 |
| 20260510030531 | 11 | 357 | 0.0 | 0.0 | 0.00 | 1.35 | 1.35 | 99 | 1013.4 |
| 20260510030029 | 11 | 356 | 0.0 | 1.6 | 0.00 | 1.35 | 1.35 | 99 | 1013.1 |
| 20260510025526 | 11 | 11 | 0.0 | 0.0 | 0.00 | 1.35 | 1.35 | 99 | 1013.3 |
| 20260510025023 | 11 | 10 | 0.0 | 0.0 | 0.00 | 1.35 | 1.35 | 99 | 1013.3 |
| 20260510024520 | 11 | 12 | 0.0 | 0.0 | 0.00 | 1.35 | 1.35 | 99 | 1013.3 |
| 20260510024016 | 11 | 8 | 0.0 | 0.0 | 0.00 | 1.35 | 1.35 | 99 | 1012.9 |
| 20260510023512 | 11 | 142 | 3.2 | 3.2 | 0.00 | 1.35 | 1.35 | 99 | 1013.1 |
| 20260510023010 | 11 | 13 | 0.0 | 3.2 | 0.00 | 1.35 | 1.35 | 99 | 1012.9 |
| 20260510022509 | 11 | 11 | 0.0 | 0.0 | 0.00 | 1.35 | 1.35 | 99 | 1013.1 |
| 20260510022008 | 11 | 19 | 1.6 | 1.6 | 0.00 | 1.35 | 1.35 | 99 | 1013.0 |
| 20260510021506 | 11 | 23 | 0.0 | 0.0 | 0.00 | 1.35 | 1.35 | 99 | 1013.0 |
| 20260510021003 | 11 | 8 | 0.0 | 0.0 | 0.00 | 1.35 | 1.35 | 99 | 1013.0 |
| 20260510020457 | 11 | 38 | 0.0 | 1.6 | 0.00 | 1.35 | 1.35 | 99 | 1013.0 |
| 20260510015953 | 11 | 19 | 0.0 | 0.0 | 0.00 | 1.35 | 1.35 | 99 | 1013.0 |
| 20260510015449 | 11 | 21 | 0.0 | 0.0 | 0.00 | 1.35 | 1.35 | 99 | 1013.2 |
| 20260510014944 | 11 | 11 | 0.0 | 0.0 | 0.00 | 1.35 | 1.35 | 99 | 1013.1 |
| 20260510014442 | 11 | 10 | 0.0 | 1.6 | 0.00 | 1.35 | 1.35 | 99 | 1013.1 |
| 20260510013938 | 11 | 4 | 0.0 | 3.2 | 0.00 | 1.35 | 1.35 | 99 | 1013.2 |
| 20260510013433 | 11 | 330 | 1.6 | 3.2 | 0.00 | 1.35 | 1.35 | 99 | 1013.2 |
| 20260510012929 | 11 | 339 | 1.6 | 3.2 | 0.00 | 1.35 | 1.35 | 99 | 1013.1 |
| 20260510012424 | 11 | 22 | 0.0 | 1.6 | 0.00 | 1.35 | 1.35 | 99 | 1012.9 |
| 20260510011919 | 11 | 2 | 0.0 | 1.6 | 0.00 | 1.35 | 1.35 | 99 | 1013.0 |
| 20260510011414 | 11 | 4 | 0.0 | 0.0 | 0.00 | 1.35 | 1.35 | 99 | 1012.9 |
| 20260510010910 | 11 | 4 | 0.0 | 0.0 | 0.00 | 1.35 | 1.35 | 99 | 1012.9 |
| 20260510010408 | 11 | 4 | 0.0 | 0.0 | 0.00 | 1.35 | 1.35 | 99 | 1012.6 |
| 20260510005904 | 11 | 1 | 1.6 | 1.6 | 0.00 | 1.35 | 1.35 | 99 | 1012.5 |
| 20260510005400 | 11 | 20 | 0.0 | 0.0 | 0.00 | 1.35 | 1.35 | 99 | 1012.6 |
| 20260510004858 | 11 | 14 | 0.0 | 1.6 | 0.00 | 1.35 | 1.35 | 99 | 1012.7 |
| 20260510004355 | 11 | 11 | 1.6 | 1.6 | 0.00 | 1.35 | 1.35 | 99 | 1012.7 |
| 20260510003853 | 11 | 18 | 0.0 | 1.6 | 0.00 | 1.35 | 1.35 | 99 | 1012.4 |
| 20260510003350 | 11 | 21 | 0.0 | 0.0 | 0.00 | 1.35 | 1.35 | 99 | 1012.6 |
| 20260510002848 | 11 | 21 | 0.0 | 0.0 | 0.00 | 1.35 | 1.35 | 99 | 1012.4 |
| 20260510002346 | 11 | 22 | 0.0 | 1.6 | 0.00 | 1.35 | 1.35 | 99 | 1012.5 |
| 20260510001842 | 11 | 15 | 0.0 | 1.6 | 0.00 | 1.35 | 1.35 | 99 | 1012.4 |
| 20260510001341 | 11 | 11 | 0.0 | 0.0 | 0.00 | 1.35 | 1.35 | 99 | 1012.3 |
| 20260510000836 | 11 | 18 | 0.0 | 0.0 | 0.00 | 1.35 | 1.35 | 99 | 1012.2 |
| 20260510000334 | 11 | 19 | 0.0 | 1.6 | 0.00 | 1.35 | 1.35 | 99 | 1012.2 |
| 20260509235830 | 11 | 19 | 0.0 | 0.0 | 0.00 | 1.35 | 1.35 | 99 | 1012.6 |
| 20260509235327 | 11 | 19 | 0.0 | 0.0 | 0.00 | 1.35 | 1.35 | 99 | 1012.3 |
| 20260509234823 | 11 | 16 | 0.0 | 1.6 | 0.00 | 1.35 | 1.35 | 99 | 1012.3 |
| 20260509234320 | 11 | 38 | 0.0 | 3.2 | 0.00 | 1.35 | 1.35 | 99 | 1012.3 |
| 20260509233818 | 11 | 316 | 3.2 | 3.2 | 0.00 | 1.35 | 1.35 | 99 | 1012.3 |
| 20260509233316 | 11 | 3 | 0.0 | 3.2 | 0.00 | 1.35 | 1.35 | 99 | 1012.3 |
| 20260509232811 | 11 | 15 | 0.0 | 1.6 | 0.13 | 1.35 | 1.35 | 99 | 1012.2 |
| 20260509232309 | 11 | 33 | 1.6 | 4.8 | 0.13 | 1.35 | 1.35 | 99 | 1012.3 |
| 20260509231805 | 11 | 164 | 1.6 | 3.2 | 0.00 | 1.32 | 1.32 | 99 | 1012.3 |
| 20260509231302 | 11 | 14 | 0.0 | 3.2 | 0.00 | 1.32 | 1.32 | 99 | 1012.4 |
| 20260509230800 | 11 | 351 | 0.0 | 1.6 | 0.00 | 1.32 | 1.32 | 99 | 1012.5 |
| 20260509230256 | 11 | 353 | 0.0 | 1.6 | 0.00 | 1.32 | 1.32 | 99 | 1012.7 |
| 20260509225751 | 12 | 10 | 0.0 | 0.0 | 0.00 | 1.32 | 1.32 | 99 | 1012.7 |
| 20260509225248 | 12 | 16 | 0.0 | 0.0 | 0.00 | 1.32 | 1.32 | 99 | 1012.6 |
| 20260509224744 | 12 | 13 | 0.0 | 0.0 | 0.18 | 1.32 | 1.32 | 99 | 1012.8 |
| 20260509224241 | 12 | 16 | 0.0 | 0.0 | 0.18 | 1.32 | 1.32 | 99 | 1012.9 |
| 20260509223738 | 12 | 16 | 0.0 | 0.0 | 0.13 | 1.30 | 1.30 | 99 | 1012.9 |
| 20260509223235 | 12 | 354 | 0.0 | 1.6 | 0.18 | 1.27 | 1.27 | 99 | 1013.0 |
| 20260509222732 | 12 | 357 | 0.0 | 1.6 | 0.13 | 1.24 | 1.24 | 99 | 1013.0 |
| 20260509222227 | 12 | 326 | 3.2 | 3.2 | 0.30 | 1.24 | 1.24 | 99 | 1013.2 |